Tiempo atmosférico en la estación meteorológica de Alcalá del Júcar, Albacete (680 m.)



Fecha
DESCASC
Temp. máxima en grados centígrados (hora)
DESCASC
Temp. mínima en grados centígrados (hora)
DESCASC
Temp. media en grados centígrados
DESCASC
Racha de viento máxima en m/sg (hora)
DESCASC
Velocidad máxima media en intervalos de 10 minutos(hora)
DESCASC
Precipitaciones diarias en mm
DESCASC
Precipitaciones de 00:00 a 06:00 en mm
DESCASC
Precipitaciones de 06:00 a 12:00 en mm
DESCASC
Precipitaciones de 12:00 a 18:00 en mm
DESCASC
Precipitaciones de 18:00 a 24:00 en mm
DESCASC
19-04-2018 21.1 (14:30) 7.8 (07:40) 14.5 10.83 (17:50) 4.72 (16:40) 0 0 0 0 0
18-04-2018 24 (16:30) 8.5 (07:00) 16.3 8.33 (15:30) 3.89 (15:00) 0 0 0 0 0
17-04-2018 22.6 (17:30) 6 (07:50) 14.3 5.28 (15:50) 2.22 (04:50) 0 0 0 0 0
16-04-2018 16.3 (17:30) 8.1 (06:50) 12.2 15.56 (04:10) 9.72 (04:10) 3 2.4 0.6 0 0
15-04-2018 19.3 (16:50) 4.9 (00:00) 12.1 11.39 (16:50) 6.11 (16:20) 0 0 0 0 0
14-04-2018 19.4 (17:10) 3.1 (00:00) 11.2 8.89 (19:30) 4.44 (18:50) 0 0 0 0 0
13-04-2018 15.6 (17:40) 4.3 (00:00) 10 6.11 (11:30) 3.61 (11:30) 0.2 0 0.2 0 0
12-04-2018 13 (14:40) 5.2 (00:00) 9.1 10.83 (01:50) 6.11 (12:00) 1.4 0 0 0 1.4
11-04-2018 8.1 (21:40) 3.6 (00:00) 5.9 16.11 (13:00) 8.89 (19:30) 3.6 0 0 3.4 0.2
10-04-2018 9.6 (20:10) 4.6 (00:00) 7.1 12.5 (20:00) 6.94 (12:40) 8.6 0 0.2 4.2 4.2
09-04-2018 12.3 (15:40) 4.5 (00:00) 8.4 13.89 (19:10) 8.33 (19:20) 0.4 0 0 0 0.4
08-04-2018 13.5 (17:30) 5.6 (00:00) 9.5 11.39 (16:50) 6.39 (16:50) 0.2 0 0 0.2 0
07-04-2018 14 (16:10) 7.5 (00:00) 10.8 9.44 (18:20) 5 (18:20) 22.4 0 0 2.4 20
06-04-2018 20.2 (15:30) 8.3 (00:00) 14.3 10.28 (21:00) 4.44 (17:30) 0 0 0 0 0
05-04-2018 22.5 (17:30) 4.6 (00:00) 13.5 8.06 (20:30) 3.33 (19:50) 0 0 0 0 0
04-04-2018 16.6 (16:50) 8.6 (00:00) 12.6 14.17 (16:00) 8.33 (17:10) 0.2 0 0.2 0 0
03-04-2018 19.4 (17:30) 8.6 (00:00) 14 13.33 (16:50) 6.94 (16:00) 0 0 0 0 0
02-04-2018 21.1 (18:00) 5.7 (00:00) 13.4 6.11 (03:10) 2.78 (00:10) 0 0 0 0 0
01-04-2018 19.6 (16:30) 2.5 (00:00) 11.1 8.33 (18:30) 3.89 (18:30) 0 0 0 0 0
31-03-2018 13.7 (18:30) 4 (00:00) 8.8 15.28 (11:10) 9.17 (14:00) 3.4 3.2 0.2 0 0
30-03-2018 13.1 (17:00) 6 (00:00) 9.6 17.5 (17:30) 8.33 (17:20) 0.8 0 0 0.8 0
29-03-2018 20 (18:30) 7 (00:00) 13.5 11.11 (15:30) 6.39 (18:40) 0 0 0 0 0
28-03-2018 23.3 (18:20) 6 (00:00) 14.6 11.39 (14:30) 6.11 (18:50) 0 0 0 0 0
27-03-2018 21.4 (18:30) 3.8 (00:00) 12.6 11.39 (15:40) 6.39 (16:10) 0 0 0 0 0
26-03-2018 16.2 (18:30) 1.3 (00:00) 8.8 10.56 (19:20) 6.94 (19:20) 0.2 0 0 0.2 0
25-03-2018 11.7 (16:40) 4.3 (00:00) 8 12.78 (06:40) 7.5 (06:40) 1.2 0 0 1 0.2
24-03-2018 10.1 (17:20) 2.6 (00:00) 6.4 20 (14:10) 12.78 (12:40) 3.2 3 0.2 0 0
23-03-2018 14.6 (16:50) 1.9 (00:00) 8.3 13.61 (18:30) 7.22 (15:20) 0 0 0 0 0

Gráficas

Temp. máximas Temp. mínimas Temp. medias Precipitaciones Rachas de viento máximas Velocidades máximas media en intervalos de 10 minutos

Datos horarios

Fecha y hora oficial Temperatura (ºC) Velocidad del viento (km/h) Dirección del viento Racha (km/h) Dirección de racha Precipitación (mm) Presión (hPa) Tendencia (hPa) Humedad (%)
2018-04-21 23:00:00 13.4 6 Este 26 Este 0 -- -- 71
2018-04-21 22:00:00 14.2 6 Este 20 Este 0 -- -- 69
2018-04-21 21:00:00 15.6 8 Este 20 Este 0 -- -- 64
2018-04-21 20:00:00 17.3 11 Sudeste 26 Sudeste 0 -- -- 60
2018-04-21 19:00:00 18.6 12 Este 26 Sudeste 0 -- -- 55
2018-04-21 18:00:00 19.5 10 Este 26 Sudeste 0 -- -- 52
2018-04-21 17:00:00 20.3 14 Este 29 Sudeste 0 -- -- 50
2018-04-21 16:00:00 19.1 13 Este 28 Sudeste 0 -- -- 50
2018-04-21 15:00:00 19.7 15 Sudeste 35 Sudeste 0 -- -- 50
2018-04-21 14:00:00 17.2 10 Este 27 Sudeste 0 -- -- 61
2018-04-21 13:00:00 15.9 8 Este 27 Sudeste 0 -- -- 66
2018-04-21 12:00:00 15.1 8 Este 19 Sudeste 0 -- -- 69
2018-04-21 11:00:00 13.7 9 Sudeste 22 Sudeste 0 -- -- 74
2018-04-21 10:00:00 12.2 7 Este 17 Sudeste 0 -- -- 81
2018-04-21 09:00:00 9.4 7 Nordeste 15 Este 0 -- -- 90
2018-04-21 08:00:00 7.8 2 Este 8 Nordeste 0 -- -- 92
2018-04-21 07:00:00 7.4 0 Calma 6 Este 0 -- -- 91
2018-04-21 06:00:00 7.4 3 Nordeste 6 Nordeste 0 -- -- 89
2018-04-21 05:00:00 7.5 2 Nordeste 9 Nordeste 0 -- -- 88
2018-04-21 04:00:00 8.3 3 Nordeste 8 Nordeste 0 -- -- 88
2018-04-21 03:00:00 8.4 4 Nordeste 9 Nordeste 0 -- -- 87
2018-04-21 02:00:00 8.8 5 Nordeste 14 Nordeste 0 -- -- 87
2018-04-21 01:00:00 10.3 5 Nordeste 20 Este 0 -- -- 83
2018-04-21 00:00:00 11.3 7 Este 21 Nordeste 0 -- -- 83
2018-04-20 23:00:00 11.4 8 Nordeste 18 Este 0 -- -- 83
2018-04-20 22:00:00 12.5 7 Este 26 Este 0 -- -- 77
2018-04-20 21:00:00 13.5 9 Este 30 Sudeste 0 -- -- 71
2018-04-20 20:00:00 14.6 11 Este 32 Este 0 -- -- 65
2018-04-20 19:00:00 15.9 14 Este 34 Este 0 -- -- 60
2018-04-20 18:00:00 17.4 13 Este 33 Sudeste 0 -- -- 56
2018-04-20 17:00:00 17.7 14 Este 39 Sudeste 0 -- -- 55
2018-04-20 16:00:00 18 12 Este 33 Sudeste 0 -- -- 56
2018-04-20 15:00:00 16.9 11 Este 38 Sudeste 0 -- -- 59
2018-04-20 14:00:00 16.6 12 Este 30 Sudeste 0 -- -- 61
2018-04-20 13:00:00 14.5 9 Este 28 Sudeste 0 -- -- 70
2018-04-20 12:00:00 15 11 Este 31 Sudeste 0 -- -- 69
2018-04-20 11:00:00 13.8 12 Sudeste 26 Sudeste 0 -- -- 77
2018-04-20 10:00:00 12.3 7 Este 24 Este 0 -- -- 84
2018-04-20 09:00:00 11.4 9 Este 18 Nordeste 0 -- -- 88
2018-04-20 08:00:00 10.9 6 Nordeste 14 Este 0 -- -- 89
2018-04-20 07:00:00 10.6 5 Nordeste 17 Nordeste 0 -- -- 89
2018-04-20 06:00:00 11 6 Nordeste 14 Nordeste 0 -- -- 89
2018-04-20 05:00:00 11 5 Nordeste 15 Nordeste 0 -- -- 89
2018-04-20 04:00:00 10.8 3 Este 13 Este 0 -- -- 90
2018-04-20 03:00:00 10.1 6 Nordeste 12 Nordeste 0 -- -- 89
2018-04-20 02:00:00 10 3 Este 11 Este 0 -- -- 87
2018-04-20 01:00:00 10.6 4 Este 15 Nordeste 0 -- -- 85
2018-04-20 00:00:00 10.7 4 Nordeste 15 Nordeste 0 -- -- 85
2018-04-19 23:00:00 11.3 7 Nordeste 20 Este 0 -- -- 84
2018-04-19 22:00:00 12.6 8 Este 19 Nordeste 0 -- -- 78
2018-04-19 21:00:00 13.9 10 Este 24 Este 0 -- -- 73
2018-04-19 20:00:00 15.7 10 Este 34 Sudeste 0 -- -- 60
2018-04-19 19:00:00 17.1 14 Este 30 Este 0 -- -- 54
2018-04-19 18:00:00 18.6 12 Este 39 Este 0 -- -- 50
2018-04-19 17:00:00 19.8 14 Este 35 Nordeste 0 -- -- 47
2018-04-19 16:00:00 20.5 14 Este 36 Este 0 -- -- 47
2018-04-19 15:00:00 21 15 Sudeste 33 Nordeste 0 -- -- 45
2018-04-19 14:00:00 20.6 9 Este 28 Sudeste 0 -- -- 45
2018-04-19 13:00:00 19.2 10 Este 30 Sudeste 0 -- -- 48
2018-04-19 12:00:00 17.6 12 Este 31 Sudeste 0 -- -- 55
2018-04-19 11:00:00 16.2 10 Este 25 Sudeste 0 -- -- 55
2018-04-19 10:00:00 13.5 8 Este 19 Nordeste 0 -- -- 67
2018-04-19 09:00:00 10.1 2 Este 13 Este 0 -- -- 77
2018-04-19 08:00:00 8.3 4 Este 13 Este 0 -- -- 81
2018-04-19 07:00:00 8.5 4 Este 10 Este 0 -- -- 78
2018-04-19 06:00:00 8.8 3 Este 9 Este 0 -- -- 76
2018-04-19 05:00:00 9.3 4 Nordeste 10 Nordeste 0 -- -- 74
2018-04-19 04:00:00 9.6 0 Calma 10 Nordeste 0 -- -- 72
2018-04-19 03:00:00 9.8 5 Nordeste 14 Nordeste 0 -- -- 70
2018-04-19 02:00:00 11.2 5 Nordeste 15 Este 0 -- -- 64
2018-04-19 01:00:00 12.6 6 Este 13 Este 0 -- -- 58
2018-04-19 00:00:00 13.6 4 Este 15 Este 0 -- -- 55
2018-04-18 23:00:00 14.8 7 Este 24 Este 0 -- -- 52
2018-04-18 22:00:00 15.6 8 Este 23 Este 0 -- -- 50
2018-04-18 21:00:00 16.7 6 Nordeste 19 Sudeste 0 -- -- 49
2018-04-18 20:00:00 18.9 8 Este 29 Nordeste 0 -- -- 40
2018-04-18 19:00:00 20.5 13 Este 30 Sudeste 0 -- -- 38
2018-04-18 18:00:00 22.5 12 Este 28 Sudeste 0 -- -- 32
2018-04-18 17:00:00 23.3 12 Sudeste 28 Este 0 -- -- 30
2018-04-18 16:00:00 23.8 11 Sudeste 30 Sudeste 0 -- -- 31
2018-04-18 15:00:00 23.4 14 Sudeste 26 Sudeste 0 -- -- 31
2018-04-18 14:00:00 22.7 12 Este 28 Sudeste 0 -- -- 36
2018-04-18 13:00:00 21.8 10 Sudeste 23 Sudeste 0 -- -- 41
2018-04-18 12:00:00 19.9 6 Este 20 Este 0 -- -- 45
2018-04-18 11:00:00 16.5 8 Nordeste 16 Nordeste 0 -- -- 63
2018-04-18 10:00:00 13 6 Nordeste 14 Este 0 -- -- 69
2018-04-18 09:00:00 9.9 3 Nordeste 8 Nordeste 0 -- -- 78
2018-04-18 08:00:00 9 5 Este 11 Nordeste 0 -- -- 78
2018-04-18 07:00:00 8.5 3 Este 12 Este 0 -- -- 82
2018-04-18 06:00:00 9.1 4 Este 13 Este 0 -- -- 81
2018-04-18 05:00:00 9.6 2 Este 12 Este 0 -- -- 78
2018-04-18 04:00:00 10.3 3 Este 12 Este 0 -- -- 76
2018-04-18 03:00:00 10.6 3 Este 12 Nordeste 0 -- -- 75
2018-04-18 02:00:00 11.5 3 Este 14 Nordeste 0 -- -- 72
2018-04-18 01:00:00 12 9 Nordeste 14 Este 0 -- -- 72
2018-04-18 00:00:00 13 5 Nordeste 11 Nordeste 0 -- -- 71
2018-04-17 23:00:00 14.8 4 Este 10 Sudeste 0 -- -- 64
2018-04-17 22:00:00 16.4 4 Sudeste 7 Sudeste 0 -- -- 58
2018-04-17 21:00:00 18.4 4 Noroeste 5 Noroeste 0 -- -- 49
2018-04-17 20:00:00 20.1 4 Oeste 10 Oeste 0 -- -- 44
2018-04-17 19:00:00 20.9 2 Noroeste 13 Oeste 0 -- -- 42
2018-04-17 18:00:00 22.5 7 Oeste 14 Oeste 0 -- -- 39
2018-04-17 17:00:00 22.4 8 Noroeste 17 Noroeste 0 -- -- 41
2018-04-17 16:00:00 21.2 5 Oeste 19 Oeste 0 -- -- 43
2018-04-17 15:00:00 20.7 7 Sudoeste 19 Noroeste 0 -- -- 45
2018-04-17 14:00:00 18.8 4 Noroeste 12 Noroeste 0 -- -- 49
2018-04-17 13:00:00 17.8 6 Noroeste 12 Noroeste 0 -- -- 54
2018-04-17 12:00:00 15.2 8 Noroeste 14 Oeste 0 -- -- 61
2018-04-17 11:00:00 12.5 7 Sudoeste 15 Sudoeste 0 -- -- 70
2018-04-17 10:00:00 10 8 Sudoeste 18 Oeste 0 -- -- 78
2018-04-17 09:00:00 7.1 6 Oeste 11 Sudoeste 0 -- -- 87
2018-04-17 08:00:00 6 6 Oeste 10 Oeste 0 -- -- 88
2018-04-17 07:00:00 6.5 3 Sudoeste 10 Oeste 0 -- -- 86
2018-04-17 06:00:00 7.1 4 Oeste 14 Oeste 0 -- -- 84
2018-04-17 05:00:00 7.7 7 Oeste 14 Oeste 0 -- -- 82
2018-04-17 04:00:00 8 6 Oeste 13 Oeste 0 -- -- 81
2018-04-17 03:00:00 8.6 0 Calma 9 Oeste 0 -- -- 78
2018-04-17 02:00:00 9.2 4 Oeste 14 Oeste 0 -- -- 76
2018-04-17 01:00:00 9.7 6 Norte 13 Oeste 0 -- -- 75
2018-04-17 00:00:00 10.7 7 Oeste 15 Noroeste 0 -- -- 72
2018-04-16 23:00:00 11.4 9 Noroeste 14 Noroeste 0 -- -- 69
2018-04-16 22:00:00 12.9 7 Noroeste 13 Noroeste 0 -- -- 65
2018-04-16 21:00:00 13.4 4 Noroeste 21 Noroeste 0 -- -- 65
2018-04-16 20:00:00 14.5 12 Noroeste 21 Noroeste 0 -- -- 57
2018-04-16 19:00:00 15.4 14 Noroeste 35 Noroeste 0 -- -- 54
2018-04-16 18:00:00 16.1 19 Noroeste 39 Noroeste 0 -- -- 52
2018-04-16 17:00:00 15.5 22 Noroeste 38 Noroeste 0 -- -- 53
2018-04-16 16:00:00 14.1 21 Noroeste 41 Noroeste 0 -- -- 58
2018-04-16 15:00:00 14.1 21 Noroeste 41 Noroeste 0 -- -- 59
2018-04-16 14:00:00 12.8 23 Noroeste 41 Noroeste 0 -- -- 64
2018-04-16 13:00:00 11.6 22 Oeste 42 Oeste 0 -- -- 71
2018-04-16 12:00:00 10.1 23 Noroeste 38 Noroeste 0 -- -- 76
2018-04-16 11:00:00 9.1 15 Oeste 35 Oeste 0 -- -- 83
2018-04-16 10:00:00 8.5 19 Oeste 39 Noroeste 0 -- -- 86
2018-04-16 09:00:00 8.5 16 Oeste 35 Oeste 0 -- -- 88
2018-04-16 08:00:00 8.3 17 Oeste 28 Oeste 0.2 -- -- 90
2018-04-16 07:00:00 8.1 8 Oeste 16 Oeste 0.4 -- -- 91
2018-04-16 06:00:00 8.5 11 Oeste 25 Oeste 2 -- -- 90
2018-04-16 05:00:00 9.4 12 Oeste 56 Noroeste 0 -- -- 86
2018-04-16 04:00:00 10.8 27 Oeste 54 Oeste 0.4 -- -- 82
2018-04-16 03:00:00 11.2 4 Oeste 8 Sudoeste 0 -- -- 80
2018-04-16 02:00:00 11.6 5 Oeste 14 Oeste 0 -- -- 79
2018-04-16 01:00:00 11.7 10 Oeste 23 Oeste 0 -- -- 78
2018-04-16 00:00:00 12.1 10 Oeste 23 Oeste 0 -- -- 74
2018-04-15 23:00:00 13 10 Oeste 25 Sudoeste 0 -- -- 73
2018-04-15 22:00:00 13.8 12 Oeste 35 Oeste 0 -- -- 71
2018-04-15 21:00:00 15.5 9 Oeste 22 Oeste 0 -- -- 64
2018-04-15 20:00:00 16 15 Noroeste 30 Oeste 0 -- -- 61
2018-04-15 19:00:00 16.7 14 Oeste 36 Oeste 0 -- -- 59
2018-04-15 18:00:00 17.8 19 Oeste 39 Oeste 0 -- -- 55
2018-04-15 17:00:00 18.9 18 Oeste 41 Oeste 0 -- -- 51
2018-04-15 16:00:00 19.1 20 Oeste 40 Noroeste 0 -- -- 46
2018-04-15 15:00:00 18.2 18 Oeste 38 Oeste 0 -- -- 48
2018-04-15 14:00:00 17.2 18 Oeste 35 Oeste 0 -- -- 51
2018-04-15 13:00:00 15.3 17 Noroeste 31 Oeste 0 -- -- 59
2018-04-15 12:00:00 14.2 14 Oeste 27 Oeste 0 -- -- 65
2018-04-15 11:00:00 11.7 12 Oeste 23 Oeste 0 -- -- 76
2018-04-15 10:00:00 9.2 6 Sudoeste 16 Oeste 0 -- -- 84
2018-04-15 09:00:00 6 7 Oeste 14 Oeste 0 -- -- 90
2018-04-15 08:00:00 5 5 Sudoeste 13 Sudoeste 0 -- -- 93
2018-04-15 07:00:00 5.2 6 Oeste 11 Oeste 0 -- -- 93
2018-04-15 06:00:00 5.3 6 Oeste 10 Oeste 0 -- -- 92
2018-04-15 05:00:00 5.7 6 Oeste 10 Oeste 0 -- -- 91
2018-04-15 04:00:00 6 4 Oeste 8 Oeste 0 -- -- 89
2018-04-15 03:00:00 6.6 4 Noroeste 8 Nordeste 0 -- -- 87
2018-04-15 02:00:00 7.2 5 Nordeste 12 Nordeste 0 -- -- 85
2018-04-15 01:00:00 7.9 6 Nordeste 14 Nordeste 0 -- -- 84
2018-04-15 00:00:00 9.2 6 Nordeste 13 Este 0 -- -- 80
2018-04-14 23:00:00 10.1 5 Este 19 Este 0 -- -- 79
2018-04-14 22:00:00 11.1 7 Este 19 Sudeste 0 -- -- 76
2018-04-14 21:00:00 12.3 7 Este 27 Sudeste 0 -- -- 71
2018-04-14 20:00:00 14 9 Este 32 Sudeste 0 -- -- 64
2018-04-14 19:00:00 17.4 12 Este 29 Sudeste 0 -- -- 44
2018-04-14 18:00:00 18 11 Noroeste 23 Noroeste 0 -- -- 36
2018-04-14 17:00:00 19.2 8 Noroeste 22 Oeste 0 -- -- 37
2018-04-14 16:00:00 18 11 Oeste 21 Noroeste 0 -- -- 39
2018-04-14 15:00:00 17.2 5 Nordeste 12 Nordeste 0 -- -- 45
2018-04-14 14:00:00 15.8 4 Oeste 12 Noroeste 0 -- -- 53
2018-04-14 13:00:00 13.6 6 Noroeste 15 Noroeste 0 -- -- 61
2018-04-14 12:00:00 11.8 4 Noroeste 13 Oeste 0 -- -- 70
2018-04-14 11:00:00 8.1 4 Oeste 9 Sudoeste 0 -- -- 79
2018-04-14 10:00:00 5 4 Sudoeste 11 Oeste 0 -- -- 89
2018-04-14 09:00:00 3.3 4 Oeste 9 Oeste 0 -- -- 92
2018-04-14 08:00:00 3.1 0 Calma 4 Sudoeste 0 -- -- 91
2018-04-14 07:00:00 3.5 0 Calma 4 Oeste 0 -- -- 91
2018-04-14 06:00:00 4.3 0 Calma 6 Sudeste 0 -- -- 89
2018-04-14 05:00:00 4.8 0 Calma 4 Sudeste 0 -- -- 89
2018-04-14 04:00:00 5.9 0 Calma 3 Nordeste 0 -- -- 86
2018-04-14 03:00:00 6.7 0 Calma 8 Nordeste 0 -- -- 85
2018-04-14 02:00:00 7.2 2 Sur 6 Noroeste 0 -- -- 82
2018-04-14 01:00:00 7.8 0 Calma 5 Sudoeste 0 -- -- 79
2018-04-14 00:00:00 8.1 3 Sudoeste 7 Sur 0 -- -- 78
2018-04-13 23:00:00 8.4 3 Sudoeste 14 Oeste 0 -- -- 77
2018-04-13 22:00:00 10.1 3 Norte 7 Norte 0 -- -- 62
2018-04-13 21:00:00 11.4 5 Norte 10 Norte 0 -- -- 60
2018-04-13 20:00:00 13 8 Noroeste 17 Noroeste 0 -- -- 52
2018-04-13 19:00:00 14 7 Noroeste 18 Norte 0 -- -- 48
2018-04-13 18:00:00 15.5 8 Noroeste 19 Noroeste 0 -- -- 46
2018-04-13 17:00:00 14.6 8 Noroeste 15 Oeste 0 -- -- 47
2018-04-13 16:00:00 14.3 9 Noroeste 18 Noroeste 0 -- -- 54
2018-04-13 15:00:00 12.6 5 Noroeste 14 Oeste 0 -- -- 54
2018-04-13 14:00:00 11.3 4 Noroeste 16 Oeste 0 -- -- 60
2018-04-13 13:00:00 10.4 8 Noroeste 20 Noroeste 0 -- -- 67
2018-04-13 12:00:00 9.3 10 Noroeste 22 Noroeste 0 -- -- 69
2018-04-13 11:00:00 8.7 12 Noroeste 20 Oeste 0 -- -- 73
2018-04-13 10:00:00 7.6 5 Oeste 13 Oeste 0.2 -- -- 85
2018-04-13 09:00:00 5.7 8 Oeste 13 Oeste 0 -- -- 90
2018-04-13 08:00:00 4.4 8 Oeste 12 Oeste 0 -- -- 91
2018-04-13 07:00:00 4.3 3 Sudoeste 10 Oeste 0 -- -- 91
2018-04-13 06:00:00 5 0 Calma 8 Oeste 0 -- -- 89
2018-04-13 05:00:00 5.5 4 Sudoeste 13 Oeste 0 -- -- 88
2018-04-13 04:00:00 6.1 4 Oeste 10 Oeste 0 -- -- 86
2018-04-13 03:00:00 6.6 6 Oeste 17 Oeste 0 -- -- 85
2018-04-13 02:00:00 7.3 9 Oeste 18 Oeste 0 -- -- 84
2018-04-13 01:00:00 7.5 3 Noroeste 10 Oeste 0 -- -- 90
2018-04-13 00:00:00 7.8 2 Este 13 Noroeste 0.2 -- -- 91
2018-04-12 23:00:00 7.9 2 Este 9 Este 0.8 -- -- 89
2018-04-12 22:00:00 8.2 0 Calma 5 Oeste 0.4 -- -- 85
2018-04-12 21:00:00 8.4 4 Sudoeste 22 Sudoeste 0 -- -- 81
2018-04-12 20:00:00 9.7 17 Oeste 31 Oeste 0 -- -- 71
2018-04-12 19:00:00 11.6 8 Oeste 22 Oeste 0 -- -- 62
2018-04-12 18:00:00 11.7 13 Oeste 30 Oeste 0 -- -- 60
2018-04-12 17:00:00 12.1 11 Oeste 24 Noroeste 0 -- -- 60
2018-04-12 16:00:00 12.1 11 Oeste 28 Sudoeste 0 -- -- 59
2018-04-12 15:00:00 12.4 15 Oeste 38 Oeste 0 -- -- 60
2018-04-12 14:00:00 12.5 16 Oeste 36 Noroeste 0 -- -- 59
2018-04-12 13:00:00 10.5 15 Oeste 33 Noroeste 0 -- -- 68
2018-04-12 12:00:00 8.9 22 Noroeste 36 Noroeste 0 -- -- 74
2018-04-12 11:00:00 7.6 17 Oeste 33 Oeste 0 -- -- 79
2018-04-12 10:00:00 6.6 14 Oeste 32 Oeste 0 -- -- 83
2018-04-12 09:00:00 5.8 13 Oeste 28 Oeste 0 -- -- 84
2018-04-12 08:00:00 5.2 13 Oeste 36 Oeste 0 -- -- 85
2018-04-12 07:00:00 5.4 18 Oeste 32 Oeste 0 -- -- 83
2018-04-12 06:00:00 5.8 15 Oeste 33 Oeste 0 -- -- 81
2018-04-12 05:00:00 6.2 19 Oeste 39 Oeste 0 -- -- 78
2018-04-12 04:00:00 6.2 17 Oeste 34 Noroeste 0 -- -- 77
2018-04-12 03:00:00 6.2 18 Oeste 38 Oeste 0 -- -- 77
2018-04-12 02:00:00 6.2 19 Oeste 39 Oeste 0 -- -- 76
2018-04-12 01:00:00 6.6 17 Oeste 33 Oeste 0 -- -- 73
2018-04-12 00:00:00 7.3 17 Oeste 41 Oeste 0 -- -- 70
2018-04-11 23:00:00 7.8 23 Oeste 50 Oeste 0 -- -- 66
2018-04-11 22:00:00 7.9 18 Oeste 53 Oeste 0 -- -- 65
2018-04-11 21:00:00 7.7 23 Oeste 54 Noroeste 0 -- -- 66
2018-04-11 20:00:00 7.2 28 Oeste 58 Oeste 0 -- -- 69
2018-04-11 19:00:00 6 27 Noroeste 48 Oeste 0.2 -- -- 80
2018-04-11 18:00:00 5.6 22 Oeste 46 Norte 0.4 -- -- 84
2018-04-11 17:00:00 4.9 23 Oeste 58 Noroeste 0.2 -- -- 86
2018-04-11 16:00:00 4.8 18 Oeste 50 Oeste 0 -- -- 86
2018-04-11 15:00:00 4.1 25 Oeste 48 Oeste 0.8 -- -- 88
2018-04-11 14:00:00 3.8 19 Oeste 51 Oeste 1.6 -- -- 89
2018-04-11 13:00:00 5.1 26 Oeste 58 Noroeste 0.4 -- -- 83
2018-04-11 12:00:00 5.4 24 Oeste 49 Oeste 0 -- -- 82
2018-04-11 11:00:00 4.9 22 Oeste 46 Oeste 0 -- -- 83
2018-04-11 10:00:00 4.5 24 Oeste 47 Oeste 0 -- -- 85
2018-04-11 09:00:00 4.1 22 Oeste 46 Oeste 0 -- -- 86
2018-04-11 08:00:00 3.8 21 Oeste 36 Oeste 0 -- -- 87
2018-04-11 07:00:00 4.1 22 Oeste 39 Oeste 0 -- -- 86
2018-04-11 06:00:00 4.1 12 Oeste 28 Oeste 0 -- -- 87
2018-04-11 05:00:00 4.2 15 Oeste 36 Oeste 0 -- -- 86
2018-04-11 04:00:00 3.9 19 Oeste 37 Oeste 0 -- -- 87
2018-04-11 03:00:00 3.7 19 Oeste 33 Oeste 0 -- -- 88
2018-04-11 02:00:00 4 17 Oeste 35 Oeste 0 -- -- 88
2018-04-11 01:00:00 4.3 20 Oeste 36 Oeste 0 -- -- 87
2018-04-11 00:00:00 4.6 13 Oeste 28 Oeste 0.2 -- -- 88
2018-04-10 23:00:00 4.9 11 Sudoeste 31 Oeste 1.2 -- -- 89
2018-04-10 22:00:00 5.7 11 Oeste 32 Noroeste 1.2 -- -- 89
2018-04-10 21:00:00 7 14 Oeste 44 Oeste 1.4 -- -- 83
2018-04-10 20:00:00 9.4 23 Sudoeste 45 Sudoeste 0.2 -- -- 74
2018-04-10 19:00:00 9.3 15 Sur 34 Sudoeste 0 -- -- 77
2018-04-10 18:00:00 8.5 10 Sur 27 Sudoeste 0.8 -- -- 81
2018-04-10 17:00:00 8.3 11 Sudoeste 23 Sur 0.6 -- -- 82
2018-04-10 16:00:00 7.7 9 Sudoeste 38 Sur 0.8 -- -- 82
2018-04-10 15:00:00 7.2 13 Sur 32 Sudoeste 1 -- -- 81
2018-04-10 14:00:00 6.9 14 Sudoeste 44 Sudoeste 0.8 -- -- 80
2018-04-10 13:00:00 7.6 22 Oeste 42 Oeste 0.2 -- -- 74
2018-04-10 12:00:00 8.8 21 Oeste 41 Oeste 0 -- -- 69
2018-04-10 11:00:00 8.3 19 Oeste 40 Sudoeste 0 -- -- 71
2018-04-10 10:00:00 7.7 17 Sudoeste 42 Oeste 0.2 -- -- 75
2018-04-10 09:00:00 6.7 13 Sudoeste 28 Oeste 0 -- -- 79
2018-04-10 08:00:00 6.2 9 Sudoeste 24 Sudoeste 0 -- -- 84
2018-04-10 07:00:00 6.2 10 Oeste 22 Sudoeste 0 -- -- 84
2018-04-10 06:00:00 6.4 9 Sudoeste 28 Oeste 0 -- -- 82
2018-04-10 05:00:00 6.3 13 Oeste 28 Oeste 0 -- -- 80
2018-04-10 04:00:00 5.9 9 Sudoeste 25 Sudoeste 0 -- -- 83
2018-04-10 03:00:00 5.4 10 Oeste 22 Oeste 0 -- -- 85
2018-04-10 02:00:00 4.8 11 Oeste 32 Oeste 0 -- -- 86
2018-04-10 01:00:00 4.9 17 Oeste 34 Oeste 0 -- -- 85
2018-04-10 00:00:00 4.6 16 Oeste 32 Oeste 0.2 -- -- 85
2018-04-09 23:00:00 4.8 17 Oeste 33 Oeste 0 -- -- 84
2018-04-09 22:00:00 4.6 16 Oeste 36 Oeste 0.2 -- -- 84
2018-04-09 21:00:00 5.4 17 Oeste 36 Oeste 0 -- -- 78
2018-04-09 20:00:00 5.9 16 Oeste 50 Noroeste 0 -- -- 78
2018-04-09 19:00:00 8.7 23 Oeste 47 Oeste 0 -- -- 61
2018-04-09 18:00:00 10.5 20 Oeste 44 Oeste 0 -- -- 51
2018-04-09 17:00:00 10.7 20 Oeste 41 Noroeste 0 -- -- 51
2018-04-09 16:00:00 11.9 22 Oeste 39 Oeste 0 -- -- 44
2018-04-09 15:00:00 10.9 19 Noroeste 41 Oeste 0 -- -- 53
2018-04-09 14:00:00 9.8 17 Oeste 33 Oeste 0 -- -- 55
2018-04-09 13:00:00 9.1 15 Oeste 34 Oeste 0 -- -- 61
2018-04-09 12:00:00 8.5 17 Oeste 28 Oeste 0 -- -- 67
2018-04-09 11:00:00 6.8 14 Oeste 34 Oeste 0 -- -- 75
2018-04-09 10:00:00 7.3 18 Oeste 38 Oeste 0 -- -- 68
2018-04-09 09:00:00 5.6 15 Oeste 31 Oeste 0 -- -- 74
2018-04-09 08:00:00 5.3 12 Oeste 29 Oeste 0 -- -- 81
2018-04-09 07:00:00 6.3 7 Sudoeste 27 Oeste 0 -- -- 77
2018-04-09 06:00:00 6.9 12 Oeste 29 Oeste 0 -- -- 78
2018-04-09 05:00:00 7.9 10 Oeste 26 Sudoeste 0 -- -- 78
2018-04-09 04:00:00 7.3 9 Oeste 17 Oeste 0 -- -- 82
2018-04-09 03:00:00 7.1 5 Sudoeste 14 Oeste 0 -- -- 84
2018-04-09 02:00:00 7.3 6 Oeste 14 Sudoeste 0 -- -- 83
2018-04-09 01:00:00 7.6 7 Sudoeste 24 Oeste 0 -- -- 81
2018-04-09 00:00:00 8.1 14 Oeste 23 Oeste 0 -- -- 80
2018-04-08 23:00:00 8.4 13 Oeste 23 Sudoeste 0 -- -- 80
2018-04-08 22:00:00 9 7 Oeste 16 Noroeste 0 -- -- 77
2018-04-08 21:00:00 9.7 11 Noroeste 28 Noroeste 0 -- -- 77
2018-04-08 20:00:00 10.7 14 Noroeste 33 Oeste 0 -- -- 69
2018-04-08 19:00:00 12.1 15 Oeste 31 Noroeste 0 -- -- 63
2018-04-08 18:00:00 11.7 15 Oeste 41 Noroeste 0 -- -- 60
2018-04-08 17:00:00 13 22 Oeste 41 Oeste 0 -- -- 59
2018-04-08 16:00:00 12.5 17 Oeste 37 Oeste 0 -- -- 64
2018-04-08 15:00:00 11.4 19 Oeste 39 Noroeste 0 -- -- 70
2018-04-08 14:00:00 11.8 21 Noroeste 39 Noroeste 0 -- -- 67
2018-04-08 13:00:00 12 18 Oeste 36 Noroeste 0.2 -- -- 69
2018-04-08 12:00:00 9.6 20 Oeste 39 Noroeste 0 -- -- 75
2018-04-08 11:00:00 9.1 20 Noroeste 36 Noroeste 0 -- -- 80
2018-04-08 10:00:00 7.7 15 Noroeste 27 Oeste 0 -- -- 90
2018-04-08 09:00:00 6.6 8 Oeste 14 Oeste 0 -- -- 93
2018-04-08 08:00:00 6.2 4 Oeste 12 Oeste 0 -- -- 93
2018-04-08 07:00:00 5.9 5 Sudoeste 12 Oeste 0 -- -- 93
2018-04-08 06:00:00 5.6 7 Oeste 12 Oeste 0 -- -- 92
2018-04-08 05:00:00 6 8 Oeste 13 Oeste 0 -- -- 92
2018-04-08 04:00:00 5.9 5 Oeste 18 Oeste 0 -- -- 91
2018-04-08 03:00:00 6.3 9 Oeste 16 Sudoeste 0 -- -- 92
2018-04-08 02:00:00 6.9 8 Oeste 14 Sudoeste 0 -- -- 93
2018-04-08 01:00:00 7.1 4 Sudoeste 13 Sudoeste 0 -- -- 93
2018-04-08 00:00:00 7.5 6 Sudoeste 13 Oeste 0 -- -- 93
2018-04-07 23:00:00 7.6 3 Oeste 9 Oeste 0.2 -- -- 91
2018-04-07 22:00:00 7.7 3 Noroeste 14 Noroeste 2.2 -- -- 90
2018-04-07 21:00:00 8.1 3 Oeste 11 Noroeste 3.4 -- -- 93
2018-04-07 20:00:00 8.3 6 Oeste 23 Oeste 3 -- -- 92
2018-04-07 19:00:00 8.7 16 Oeste 34 Noroeste 11.2 -- -- 91
2018-04-07 18:00:00 11.9 14 Norte 27 Noroeste 2.4 -- -- 87
2018-04-07 17:00:00 13.2 9 Nordeste 19 Nordeste 0 -- -- 76
2018-04-07 16:00:00 13.9 5 Este 24 Sudeste 0 -- -- 74
2018-04-07 15:00:00 12.7 8 Este 16 Nordeste 0 -- -- 79
2018-04-07 14:00:00 11.6 9 Nordeste 16 Sudeste 0 -- -- 80
2018-04-07 13:00:00 12.6 5 Este 19 Sudeste 0 -- -- 76
2018-04-07 12:00:00 11.7 9 Este 25 Sudeste 0 -- -- 78
2018-04-07 11:00:00 11.2 12 Este 31 Sudeste 0 -- -- 79
2018-04-07 10:00:00 10.4 9 Sudeste 22 Sudeste 0 -- -- 80
2018-04-07 09:00:00 9.1 5 Este 14 Sudeste 0 -- -- 82
2018-04-07 08:00:00 8.8 7 Sudeste 17 Sudeste 0 -- -- 82
2018-04-07 07:00:00 9.3 6 Este 23 Sudeste 0 -- -- 81
2018-04-07 06:00:00 9.5 5 Este 17 Este 0 -- -- 87
2018-04-07 05:00:00 9.6 7 Nordeste 19 Nordeste 0 -- -- 85
2018-04-07 04:00:00 9.8 7 Este 18 Sudeste 0 -- -- 82
2018-04-07 03:00:00 9.9 7 Este 21 Este 0 -- -- 80
2018-04-07 02:00:00 10.1 8 Este 20 Nordeste 0 -- -- 83
2018-04-07 01:00:00 10.3 5 Este 21 Este 0 -- -- 84
2018-04-07 00:00:00 10.7 8 Este 27 Este 0 -- -- 82
2018-04-06 23:00:00 11 9 Este 28 Nordeste 0 -- -- 79
2018-04-06 22:00:00 11.1 12 Este 35 Este 0 -- -- 78
2018-04-06 21:00:00 11.8 13 Este 37 Sudeste 0 -- -- 76
2018-04-06 20:00:00 13.5 13 Este 36 Nordeste 0 -- -- 67
2018-04-06 19:00:00 15.4 13 Este 33 Este 0 -- -- 63
2018-04-06 18:00:00 18 14 Este 34 Nordeste 0 -- -- 55
2018-04-06 17:00:00 18.4 10 Este 28 Sudeste 0 -- -- 53
2018-04-06 16:00:00 19.6 13 Este 30 Este 0 -- -- 49
2018-04-06 15:00:00 19.8 8 Este 28 Nordeste 0 -- -- 48
2018-04-06 14:00:00 18.1 10 Este 26 Nordeste 0 -- -- 55
2018-04-06 13:00:00 16.3 10 Este 32 Nordeste 0 -- -- 59
2018-04-06 12:00:00 14 12 Nordeste 28 Nordeste 0 -- -- 66
2018-04-06 11:00:00 12.6 9 Este 28 Nordeste 0 -- -- 71
2018-04-06 10:00:00 11.1 7 Este 16 Sudeste 0 -- -- 73
2018-04-06 09:00:00 9.3 6 Nordeste 14 Este 0 -- -- 80
2018-04-06 08:00:00 8.7 4 Este 15 Este 0 -- -- 79
2018-04-06 07:00:00 8.7 5 Este 18 Nordeste 0 -- -- 80
2018-04-06 06:00:00 8.6 6 Este 16 Este 0 -- -- 81
2018-04-06 05:00:00 8.4 9 Nordeste 17 Este 0 -- -- 79
2018-04-06 04:00:00 8.9 9 Nordeste 14 Nordeste 0 -- -- 77
2018-04-06 03:00:00 9.1 8 Nordeste 18 Nordeste 0 -- -- 74
2018-04-06 02:00:00 9.2 11 Nordeste 18 Nordeste 0 -- -- 74
2018-04-06 01:00:00 9.7 8 Nordeste 21 Nordeste 0 -- -- 72
2018-04-06 00:00:00 11 6 Nordeste 21 Este 0 -- -- 68
2018-04-05 23:00:00 11.5 12 Nordeste 20 Nordeste 0 -- -- 66
2018-04-05 22:00:00 14 6 Este 21 Sudeste 0 -- -- 56
2018-04-05 21:00:00 15.6 8 Este 29 Sudeste 0 -- -- 49
2018-04-05 20:00:00 18.6 10 Este 24 Sudeste 0 -- -- 40
2018-04-05 19:00:00 20.9 11 Sur 22 Sur 0 -- -- 28
2018-04-05 18:00:00 22.4 9 Sur 24 Sur 0 -- -- 27
2018-04-05 17:00:00 22.3 8 Sudoeste 24 Sur 0 -- -- 26
2018-04-05 16:00:00 22 7 Sur 17 Sur 0 -- -- 28
2018-04-05 15:00:00 20.4 5 Sudoeste 12 Norte 0 -- -- 35
2018-04-05 14:00:00 18.9 5 Sudeste 13 Este 0 -- -- 39
2018-04-05 13:00:00 16.9 7 Norte 13 Norte 0 -- -- 45
2018-04-05 12:00:00 14.9 6 Norte 11 Norte 0 -- -- 54
2018-04-05 11:00:00 11.8 4 Noroeste 10 Noroeste 0 -- -- 68
2018-04-05 10:00:00 8.6 4 Oeste 8 Oeste 0 -- -- 79
2018-04-05 09:00:00 5 0 Calma 5 Nordeste 0 -- -- 86
2018-04-05 08:00:00 4.6 0 Calma 5 Sudoeste 0 -- -- 86
2018-04-05 07:00:00 4.9 2 Oeste 12 Oeste 0 -- -- 85
2018-04-05 06:00:00 5.8 5 Noroeste 13 Oeste 0 -- -- 81
2018-04-05 05:00:00 6.4 2 Sudoeste 8 Sudoeste 0 -- -- 80
2018-04-05 04:00:00 6.4 6 Oeste 9 Oeste 0 -- -- 78
2018-04-05 03:00:00 6.4 2 Sur 7 Sudeste 0 -- -- 77
2018-04-05 02:00:00 7.6 4 Oeste 8 Oeste 0 -- -- 72
2018-04-05 01:00:00 8.5 4 Sudoeste 11 Oeste 0 -- -- 68
2018-04-05 00:00:00 10.1 3 Sudoeste 14 Oeste 0 -- -- 61
2018-04-04 23:00:00 11.2 9 Oeste 21 Oeste 0 -- -- 58
2018-04-04 22:00:00 11.8 10 Oeste 22 Noroeste 0 -- -- 57
2018-04-04 21:00:00 12.7 12 Oeste 33 Oeste 0 -- -- 54
2018-04-04 20:00:00 14 17 Noroeste 42 Noroeste 0 -- -- 50
2018-04-04 19:00:00 15.2 22 Noroeste 48 Oeste 0 -- -- 44
2018-04-04 18:00:00 16.2 21 Oeste 50 Noroeste 0 -- -- 40
2018-04-04 17:00:00 16.1 27 Noroeste 51 Oeste 0 -- -- 43
2018-04-04 16:00:00 16.2 27 Oeste 51 Noroeste 0 -- -- 43
2018-04-04 15:00:00 14.2 24 Oeste 48 Noroeste 0 -- -- 46
2018-04-04 14:00:00 12.7 23 Noroeste 47 Oeste 0 -- -- 57
2018-04-04 13:00:00 13.2 26 Oeste 47 Oeste 0 -- -- 48
2018-04-04 12:00:00 12.8 24 Oeste 46 Oeste 0 -- -- 49
2018-04-04 11:00:00 11 22 Oeste 45 Oeste 0 -- -- 67
2018-04-04 10:00:00 9.5 20 Oeste 34 Noroeste 0 -- -- 77
2018-04-04 09:00:00 8.8 15 Oeste 33 Oeste 0.2 -- -- 82
2018-04-04 08:00:00 8.6 10 Sudoeste 24 Oeste 0 -- -- 76
2018-04-04 07:00:00 9.3 15 Oeste 30 Oeste 0 -- -- 73
2018-04-04 06:00:00 9.8 13 Oeste 27 Sudoeste 0 -- -- 69
2018-04-04 05:00:00 10.4 13 Oeste 29 Sudoeste 0 -- -- 65
2018-04-04 04:00:00 10.4 17 Oeste 32 Oeste 0 -- -- 67
2018-04-04 03:00:00 10.5 10 Sudoeste 33 Oeste 0 -- -- 65
2018-04-04 02:00:00 11.1 15 Sudoeste 30 Sudoeste 0 -- -- 64
2018-04-04 01:00:00 12 12 Oeste 33 Oeste 0 -- -- 65
2018-04-04 00:00:00 13 17 Oeste 42 Sudoeste 0 -- -- 63
2018-04-03 23:00:00 13.5 15 Oeste 33 Oeste 0 -- -- 57
2018-04-03 22:00:00 14.8 18 Oeste 37 Sudoeste 0 -- -- 49
2018-04-03 21:00:00 15.5 19 Oeste 37 Oeste 0 -- -- 44
2018-04-03 20:00:00 16.7 20 Oeste 40 Oeste 0 -- -- 40
2018-04-03 19:00:00 17.6 21 Oeste 40 Oeste 0 -- -- 39
2018-04-03 18:00:00 19.2 18 Oeste 36 Sudoeste 0 -- -- 36
2018-04-03 17:00:00 18.9 21 Oeste 48 Oeste 0 -- -- 38
2018-04-03 16:00:00 18.8 25 Oeste 43 Noroeste 0 -- -- 41
2018-04-03 15:00:00 18 21 Oeste 44 Oeste 0 -- -- 42
2018-04-03 14:00:00 16.9 21 Oeste 45 Sudoeste 0 -- -- 46
2018-04-03 13:00:00 16.2 17 Oeste 36 Oeste 0 -- -- 51
2018-04-03 12:00:00 15.2 16 Oeste 35 Sudoeste 0 -- -- 60
2018-04-03 11:00:00 13.3 13 Oeste 25 Oeste 0 -- -- 71
2018-04-03 10:00:00 10.8 6 Oeste 15 Sudoeste 0 -- -- 79
2018-04-03 09:00:00 9.7 4 Sudoeste 9 Sudoeste 0 -- -- 81
2018-04-03 08:00:00 8.7 5 Oeste 9 Oeste 0 -- -- 82
2018-04-03 07:00:00 8.9 3 Sudoeste 10 Oeste 0 -- -- 78
2018-04-03 06:00:00 9 0 Calma 10 Oeste 0 -- -- 74
2018-04-03 05:00:00 9.9 2 Sudoeste 15 Oeste 0 -- -- 69
2018-04-03 04:00:00 10.1 3 Oeste 12 Oeste 0 -- -- 65
2018-04-03 03:00:00 10.9 7 Oeste 14 Oeste 0 -- -- 61
2018-04-03 02:00:00 11.7 5 Oeste 13 Oeste 0 -- -- 57
2018-04-03 01:00:00 12.5 6 Oeste 11 Oeste 0 -- -- 55
2018-04-03 00:00:00 13.6 5 Oeste 12 Oeste 0 -- -- 52
2018-04-02 23:00:00 12.9 0 Calma 8 Norte 0 -- -- 63
2018-04-02 22:00:00 14.7 0 Calma 9 Sudeste 0 -- -- 57
2018-04-02 21:00:00 16 4 Este 12 Este 0 -- -- 52
2018-04-02 20:00:00 18.4 2 Este 8 Norte 0 -- -- 38
2018-04-02 19:00:00 19.5 5 Norte 10 Este 0 -- -- 35
2018-04-02 18:00:00 21.1 5 Norte 11 Norte 0 -- -- 31
2018-04-02 17:00:00 20.7 3 Norte 10 Noroeste 0 -- -- 32
2018-04-02 16:00:00 19.6 4 Noroeste 10 Norte 0 -- -- 33
2018-04-02 15:00:00 18.1 4 Nordeste 13 Nordeste 0 -- -- 38
2018-04-02 14:00:00 16.9 5 Nordeste 12 Nordeste 0 -- -- 43
2018-04-02 13:00:00 14.7 5 Nordeste 15 Nordeste 0 -- -- 48
2018-04-02 12:00:00 13 7 Nordeste 15 Nordeste 0 -- -- 57
2018-04-02 11:00:00 10.6 4 Este 20 Sudeste 0 -- -- 68
2018-04-02 10:00:00 8.3 7 Este 16 Sudeste 0 -- -- 82
2018-04-02 09:00:00 6.4 5 Nordeste 14 Sudeste 0 -- -- 87
2018-04-02 08:00:00 6.1 5 Este 16 Este 0 -- -- 88
2018-04-02 07:00:00 5.7 6 Nordeste 17 Nordeste 0 -- -- 88
2018-04-02 06:00:00 6.5 8 Nordeste 15 Nordeste 0 -- -- 82
2018-04-02 05:00:00 7.2 6 Este 19 Sudeste 0 -- -- 75
2018-04-02 04:00:00 7.7 6 Este 22 Sudeste 0 -- -- 71
2018-04-02 03:00:00 7.9 6 Este 19 Este 0 -- -- 67
2018-04-02 02:00:00 8.2 3 Este 16 Nordeste 0 -- -- 63
2018-04-02 01:00:00 8.4 7 Nordeste 19 Norte 0 -- -- 65
2018-04-02 00:00:00 9.6 9 Nordeste 17 Nordeste 0 -- -- 58
2018-04-01 23:00:00 11.2 3 Este 13 Sudeste 0 -- -- 48
2018-04-01 22:00:00 12.3 6 Este 15 Sudeste 0 -- -- 45
2018-04-01 21:00:00 14.2 8 Sur 24 Sudeste 0 -- -- 42
2018-04-01 20:00:00 16.1 11 Sudeste 19 Sur 0 -- -- 39
2018-04-01 19:00:00 17.8 11 Sur 30 Sudoeste 0 -- -- 33
2018-04-01 18:00:00 19.5 10 Sur 26 Sur 0 -- -- 31
2018-04-01 17:00:00 19.5 13 Sudeste 23 Sudeste 0 -- -- 32
2018-04-01 16:00:00 18.9 8 Sur 22 Sur 0 -- -- 32
2018-04-01 15:00:00 17.6 7 Sur 17 Sur 0 -- -- 35
2018-04-01 14:00:00 16.7 9 Sur 17 Sudeste 0 -- -- 36
2018-04-01 13:00:00 14.9 4 Norte 13 Este 0 -- -- 47
2018-04-01 12:00:00 12.3 5 Nordeste 10 Nordeste 0 -- -- 53
2018-04-01 11:00:00 9.7 0 Calma 6 Norte 0 -- -- 65
2018-04-01 10:00:00 6.8 3 Norte 7 Norte 0 -- -- 76
2018-04-01 09:00:00 4.1 3 Oeste 7 Noroeste 0 -- -- 81
2018-04-01 08:00:00 2.5 2 Noroeste 5 Oeste 0 -- -- 82
2018-04-01 07:00:00 2.6 2 Sudoeste 10 Noroeste 0 -- -- 82
2018-04-01 06:00:00 3.3 3 Sudoeste 15 Oeste 0 -- -- 78
2018-04-01 05:00:00 3.2 7 Oeste 15 Oeste 0 -- -- 80
2018-04-01 04:00:00 3.5 5 Oeste 9 Oeste 0 -- -- 76
2018-04-01 03:00:00 4.2 3 Oeste 11 Oeste 0 -- -- 72
2018-04-01 02:00:00 4.5 4 Oeste 13 Noroeste 0 -- -- 69
2018-04-01 01:00:00 5.3 2 Sudoeste 9 Oeste 0 -- -- 64
2018-04-01 00:00:00 6.5 6 Oeste 12 Oeste 0 -- -- 58
2018-03-31 23:00:00 7.9 4 Oeste 16 Oeste 0 -- -- 52
2018-03-31 22:00:00 7.9 6 Oeste 15 Noroeste 0 -- -- 52
2018-03-31 21:00:00 9.1 12 Noroeste 22 Oeste 0 -- -- 48
2018-03-31 20:00:00 11.1 14 Noroeste 37 Noroeste 0 -- -- 40
2018-03-31 19:00:00 12.4 21 Noroeste 48 Noroeste 0 -- -- 36
2018-03-31 18:00:00 13.3 25 Noroeste 49 Oeste 0 -- -- 36
2018-03-31 17:00:00 13.1 25 Noroeste 46 Noroeste 0 -- -- 37
2018-03-31 16:00:00 12.6 28 Noroeste 45 Noroeste 0 -- -- 39
2018-03-31 15:00:00 11.1 28 Noroeste 50 Noroeste 0 -- -- 48
2018-03-31 14:00:00 10.3 33 Noroeste 54 Noroeste 0 -- -- 52
2018-03-31 13:00:00 8.6 28 Noroeste 49 Noroeste 0 -- -- 59
2018-03-31 12:00:00 7.7 28 Noroeste 55 Oeste 0 -- -- 65
2018-03-31 11:00:00 6.9 29 Oeste 51 Noroeste 0.2 -- -- 72
2018-03-31 10:00:00 5.4 23 Oeste 44 Oeste 0 -- -- 76
2018-03-31 09:00:00 4.7 19 Oeste 46 Oeste 0 -- -- 78
2018-03-31 08:00:00 4.6 20 Oeste 45 Oeste 0 -- -- 78
2018-03-31 07:00:00 4.7 22 Oeste 52 Oeste 0 -- -- 78
2018-03-31 06:00:00 4.7 23 Oeste 48 Oeste 0 -- -- 79
2018-03-31 05:00:00 4.7 25 Oeste 42 Oeste 0 -- -- 82
2018-03-31 04:00:00 4.9 22 Oeste 45 Oeste 0 -- -- 83
2018-03-31 03:00:00 4.3 23 Oeste 54 Oeste 1 -- -- 86
2018-03-31 02:00:00 4.8 20 Oeste 41 Noroeste 2.2 -- -- 86
2018-03-31 01:00:00 6.5 8 Sudoeste 30 Oeste 0 -- -- 65
2018-03-31 00:00:00 7.1 17 Oeste 34 Oeste 0 -- -- 59
2018-03-30 23:00:00 6.9 14 Oeste 29 Oeste 0 -- -- 57
2018-03-30 22:00:00 7.4 15 Oeste 37 Oeste 0 -- -- 51
2018-03-30 21:00:00 8.4 21 Oeste 56 Noroeste 0 -- -- 45
2018-03-30 20:00:00 9.7 22 Oeste 56 Oeste 0 -- -- 39
2018-03-30 19:00:00 10.7 26 Oeste 53 Noroeste 0 -- -- 38
2018-03-30 18:00:00 12.6 30 Oeste 63 Oeste 0 -- -- 36
2018-03-30 17:00:00 13.1 23 Oeste 51 Oeste 0 -- -- 39
2018-03-30 16:00:00 11.6 22 Oeste 44 Oeste 0 -- -- 51
2018-03-30 15:00:00 10.1 18 Oeste 40 Oeste 0 -- -- 66
2018-03-30 14:00:00 9.4 17 Oeste 37 Oeste 0.2 -- -- 72
2018-03-30 13:00:00 8.1 19 Noroeste 40 Oeste 0.6 -- -- 83
2018-03-30 12:00:00 9.3 20 Oeste 40 Oeste 0 -- -- 65
2018-03-30 11:00:00 8.7 17 Oeste 33 Oeste 0 -- -- 65
2018-03-30 10:00:00 8 16 Oeste 27 Sudoeste 0 -- -- 68
2018-03-30 09:00:00 6.3 8 Sudoeste 27 Oeste 0 -- -- 74
2018-03-30 08:00:00 6.2 17 Oeste 33 Oeste 0 -- -- 73
2018-03-30 07:00:00 6.1 12 Oeste 25 Oeste 0 -- -- 71
2018-03-30 06:00:00 6.5 10 Oeste 27 Oeste 0 -- -- 70
2018-03-30 05:00:00 7.2 12 Oeste 29 Oeste 0 -- -- 68
2018-03-30 04:00:00 7.9 15 Oeste 30 Oeste 0 -- -- 65
2018-03-30 03:00:00 8 10 Oeste 28 Oeste 0 -- -- 63
2018-03-30 02:00:00 8.5 12 Oeste 25 Oeste 0 -- -- 62
2018-03-30 01:00:00 8.9 12 Oeste 22 Noroeste 0 -- -- 60
2018-03-30 00:00:00 9.6 13 Oeste 23 Oeste 0 -- -- 53
2018-03-29 23:00:00 10.8 12 Oeste 26 Oeste 0 -- -- 47
2018-03-29 22:00:00 11.9 12 Oeste 29 Noroeste 0 -- -- 47
2018-03-29 21:00:00 13.6 14 Oeste 28 Oeste 0 -- -- 50
2018-03-29 20:00:00 15.9 14 Oeste 39 Oeste 0 -- -- 45
2018-03-29 19:00:00 17.6 18 Oeste 39 Oeste 0 -- -- 38
2018-03-29 18:00:00 19.1 17 Oeste 35 Oeste 0 -- -- 37
2018-03-29 17:00:00 18.7 14 Oeste 37 Oeste 0 -- -- 39
2018-03-29 16:00:00 17.4 18 Oeste 40 Oeste 0 -- -- 44
2018-03-29 15:00:00 16.1 19 Oeste 36 Noroeste 0 -- -- 51
2018-03-29 14:00:00 14.7 16 Oeste 31 Oeste 0 -- -- 60
2018-03-29 13:00:00 13 15 Noroeste 30 Noroeste 0 -- -- 66
2018-03-29 12:00:00 11.8 8 Sudoeste 26 Oeste 0 -- -- 73
2018-03-29 11:00:00 9.8 11 Oeste 22 Noroeste 0 -- -- 80
2018-03-29 10:00:00 7.8 6 Sudoeste 20 Sudoeste 0 -- -- 77
2018-03-29 09:00:00 7.1 7 Oeste 18 Oeste 0 -- -- 75
2018-03-29 08:00:00 7.2 9 Oeste 21 Oeste 0 -- -- 74
2018-03-29 07:00:00 7.4 11 Oeste 22 Oeste 0 -- -- 67
2018-03-29 06:00:00 8.2 10 Oeste 23 Oeste 0 -- -- 58
2018-03-29 05:00:00 9 14 Oeste 23 Oeste 0 -- -- 52
2018-03-29 04:00:00 10 10 Oeste 15 Oeste 0 -- -- 47
2018-03-29 03:00:00 11.5 10 Oeste 25 Oeste 0 -- -- 41
2018-03-29 02:00:00 13 18 Oeste 32 Oeste 0 -- -- 36
2018-03-29 01:00:00 12.3 8 Oeste 23 Oeste 0 -- -- 41
2018-03-29 00:00:00 12.7 10 Oeste 15 Oeste 0 -- -- 44
2018-03-28 23:00:00 13.8 7 Oeste 13 Oeste 0 -- -- 44
2018-03-28 22:00:00 16.6 5 Sudoeste 22 Oeste 0 -- -- 32
2018-03-28 21:00:00 18.2 12 Oeste 26 Noroeste 0 -- -- 26
2018-03-28 20:00:00 19.7 13 Oeste 40 Oeste 0 -- -- 31
2018-03-28 19:00:00 21.3 19 Noroeste 36 Noroeste 0 -- -- 32
2018-03-28 18:00:00 22.5 17 Oeste 34 Noroeste 0 -- -- 30
2018-03-28 17:00:00 22.6 18 Noroeste 36 Noroeste 0 -- -- 30
2018-03-28 16:00:00 22.4 15 Noroeste 33 Noroeste 0 -- -- 32
2018-03-28 15:00:00 21.3 17 Noroeste 41 Noroeste 0 -- -- 35
2018-03-28 14:00:00 20.2 16 Oeste 32 Noroeste 0 -- -- 36
2018-03-28 13:00:00 17.8 15 Oeste 28 Oeste 0 -- -- 46
2018-03-28 12:00:00 15.3 12 Oeste 24 Oeste 0 -- -- 52
2018-03-28 11:00:00 12.6 7 Sudoeste 14 Sudoeste 0 -- -- 63
2018-03-28 10:00:00 9.1 6 Oeste 16 Oeste 0 -- -- 75
2018-03-28 09:00:00 6.6 7 Oeste 12 Oeste 0 -- -- 82
2018-03-28 08:00:00 6.1 4 Oeste 14 Oeste 0 -- -- 82
2018-03-28 07:00:00 6.7 9 Oeste 16 Oeste 0 -- -- 81
2018-03-28 06:00:00 6.9 9 Oeste 15 Oeste 0 -- -- 79
2018-03-28 05:00:00 7.5 8 Oeste 15 Oeste 0 -- -- 76
2018-03-28 04:00:00 7.8 6 Oeste 12 Oeste 0 -- -- 74
2018-03-28 03:00:00 8.2 6 Oeste 16 Oeste 0 -- -- 72
2018-03-28 02:00:00 9 5 Sudoeste 10 Oeste 0 -- -- 68
2018-03-28 01:00:00 10.2 5 Oeste 14 Oeste 0 -- -- 62
2018-03-28 00:00:00 11.5 8 Oeste 13 Oeste 0 -- -- 56
2018-03-27 23:00:00 13.2 5 Sudoeste 18 Oeste 0 -- -- 51
2018-03-27 22:00:00 13.7 7 Oeste 18 Noroeste 0 -- -- 50
2018-03-27 21:00:00 15.7 11 Noroeste 21 Noroeste 0 -- -- 46
2018-03-27 20:00:00 17.9 11 Oeste 35 Noroeste 0 -- -- 40
2018-03-27 19:00:00 19.5 18 Noroeste 37 Noroeste 0 -- -- 39
2018-03-27 18:00:00 20.5 21 Noroeste 38 Oeste 0 -- -- 37
2018-03-27 17:00:00 20.6 21 Noroeste 39 Oeste 0 -- -- 36
2018-03-27 16:00:00 20 21 Oeste 41 Sudoeste 0 -- -- 39
2018-03-27 15:00:00 19.3 15 Oeste 39 Oeste 0 -- -- 42
2018-03-27 14:00:00 17.3 19 Oeste 39 Oeste 0 -- -- 46
2018-03-27 13:00:00 15.5 14 Oeste 28 Oeste 0 -- -- 50
2018-03-27 12:00:00 12.9 12 Oeste 25 Noroeste 0 -- -- 52
2018-03-27 11:00:00 9.6 12 Oeste 24 Oeste 0 -- -- 59
2018-03-27 10:00:00 7.1 9 Sudoeste 20 Sudoeste 0 -- -- 65
2018-03-27 09:00:00 4.4 6 Sudoeste 23 Oeste 0 -- -- 73
2018-03-27 08:00:00 3.9 10 Oeste 16 Oeste 0 -- -- 74
2018-03-27 07:00:00 4.5 5 Sudoeste 14 Oeste 0 -- -- 71
2018-03-27 06:00:00 5.2 8 Oeste 16 Oeste 0 -- -- 67
2018-03-27 05:00:00 4.9 10 Oeste 17 Oeste 0 -- -- 69
2018-03-27 04:00:00 6.3 5 Oeste 18 Noroeste 0 -- -- 63
2018-03-27 03:00:00 6.7 4 Oeste 11 Norte 0 -- -- 61
2018-03-27 02:00:00 6.9 3 Nordeste 21 Noroeste 0 -- -- 61
2018-03-27 01:00:00 8 12 Norte 29 Noroeste 0 -- -- 57
2018-03-27 00:00:00 8.1 10 Norte 26 Noroeste 0 -- -- 58
2018-03-26 23:00:00 8.1 13 Norte 21 Norte 0 -- -- 56
2018-03-26 22:00:00 8.8 12 Noroeste 20 Noroeste 0 -- -- 50
2018-03-26 21:00:00 10.4 10 Noroeste 24 Noroeste 0 -- -- 46
2018-03-26 20:00:00 12.7 14 Noroeste 38 Noroeste 0 -- -- 44
2018-03-26 19:00:00 14.4 20 Noroeste 36 Noroeste 0 -- -- 40
2018-03-26 18:00:00 14 21 Noroeste 32 Noroeste 0 -- -- 41
2018-03-26 17:00:00 14.8 12 Norte 28 Norte 0 -- -- 41
2018-03-26 16:00:00 15.1 13 Norte 32 Norte 0 -- -- 41
2018-03-26 15:00:00 14.7 9 Norte 18 Noroeste 0 -- -- 46
2018-03-26 14:00:00 12.9 7 Oeste 20 Noroeste 0 -- -- 51
2018-03-26 13:00:00 11.5 10 Oeste 22 Noroeste 0.2 -- -- 59
2018-03-26 12:00:00 9.7 12 Noroeste 24 Noroeste 0 -- -- 64
2018-03-26 11:00:00 7.1 8 Oeste 22 Oeste 0 -- -- 77
2018-03-26 10:00:00 3.7 6 Sudoeste 13 Sudoeste 0 -- -- 87
2018-03-26 09:00:00 1.6 7 Sudoeste 13 Sudoeste 0 -- -- 89
2018-03-26 08:00:00 1.5 6 Sudoeste 12 Oeste 0 -- -- 88
2018-03-26 07:00:00 1.8 4 Oeste 9 Sudoeste 0 -- -- 88
2018-03-26 06:00:00 2 5 Oeste 9 Oeste 0 -- -- 87
2018-03-26 05:00:00 2.1 4 Oeste 10 Oeste 0 -- -- 87
2018-03-26 04:00:00 2.6 6 Oeste 11 Oeste 0 -- -- 85
2018-03-26 03:00:00 3.2 4 Oeste 9 Oeste 0 -- -- 84
2018-03-26 02:00:00 3.7 4 Oeste 8 Oeste 0 -- -- 81
2018-03-26 01:00:00 4.4 0 Calma 9 Noroeste 0 -- -- 82
2018-03-26 00:00:00 4.3 4 Norte 10 Norte 0 -- -- 82
2018-03-25 23:00:00 5.2 0 Calma 9 Sudoeste 0 -- -- 83
2018-03-25 22:00:00 5.6 4 Oeste 10 Oeste 0 -- -- 83
2018-03-25 21:00:00 6.2 7 Oeste 13 Oeste 0 -- -- 80
2018-03-25 20:00:00 6.8 4 Sudoeste 12 Norte 0 -- -- 77
2018-03-25 19:00:00 7.1 5 Nordeste 18 Oeste 0.2 -- -- 79
2018-03-25 18:00:00 7.6 14 Noroeste 38 Norte 1 -- -- 72
2018-03-25 17:00:00 11.7 8 Noroeste 27 Norte 0 -- -- 46
2018-03-25 16:00:00 10.3 9 Noroeste 25 Noroeste 0 -- -- 50
2018-03-25 15:00:00 10.6 12 Noroeste 26 Noroeste 0 -- -- 49
2018-03-25 14:00:00 10.8 14 Noroeste 32 Noroeste 0 -- -- 47
2018-03-25 13:00:00 9.7 18 Noroeste 32 Noroeste 0 -- -- 54
2018-03-25 12:00:00 9 19 Noroeste 37 Noroeste 0 -- -- 59
2018-03-25 11:00:00 7.3 18 Oeste 32 Noroeste 0 -- -- 66
2018-03-25 10:00:00 5.1 15 Oeste 30 Oeste 0 -- -- 78
2018-03-25 09:00:00 4.7 12 Oeste 23 Oeste 0 -- -- 78
2018-03-25 08:00:00 4.9 8 Oeste 28 Noroeste 0 -- -- 74
2018-03-25 07:00:00 5.2 22 Noroeste 46 Noroeste 0 -- -- 70
2018-03-25 06:00:00 4.9 14 Oeste 31 Noroeste 0 -- -- 74
2018-03-25 05:00:00 5.4 19 Noroeste 33 Noroeste 0 -- -- 71
2018-03-25 03:00:00 6.3 19 Oeste 36 Noroeste 0 -- -- 69
2018-03-25 01:00:00 6.9 23 Oeste 38 Oeste 0 -- -- 64
2018-03-25 00:00:00 7.1 18 Oeste 36 Oeste 0 -- -- 64
2018-03-24 23:00:00 7.3 21 Noroeste 38 Noroeste 0 -- -- 65
2018-03-24 22:00:00 7.5 23 Noroeste 39 Oeste 0 -- -- 64
2018-03-24 21:00:00 6.6 18 Noroeste 50 Noroeste 0 -- -- 69
2018-03-24 20:00:00 6.2 23 Noroeste 52 Noroeste 0 -- -- 75
2018-03-24 19:00:00 6.9 37 Noroeste 68 Noroeste 0 -- -- 76
2018-03-24 18:00:00 9.3 28 Noroeste 68 Noroeste 0 -- -- 56
2018-03-24 17:00:00 8.9 39 Noroeste 66 Noroeste 0 -- -- 58
2018-03-24 16:00:00 9.5 35 Noroeste 64 Noroeste 0 -- -- 53
2018-03-24 15:00:00 8.4 32 Noroeste 72 Noroeste 0 -- -- 57
2018-03-24 14:00:00 9 42 Noroeste 71 Noroeste 0 -- -- 51
2018-03-24 13:00:00 8 37 Noroeste 71 Noroeste 0 -- -- 55
2018-03-24 12:00:00 7.2 38 Noroeste 71 Noroeste 0 -- -- 60
2018-03-24 11:00:00 6.6 40 Noroeste 65 Noroeste 0 -- -- 62
2018-03-24 10:00:00 5.7 33 Noroeste 57 Noroeste 0 -- -- 66
2018-03-24 09:00:00 4.3 26 Noroeste 40 Noroeste 0 -- -- 74
2018-03-24 08:00:00 2.9 20 Noroeste 37 Oeste 0 -- -- 80
2018-03-24 07:00:00 2.6 15 Oeste 35 Oeste 0.2 -- -- 84
2018-03-24 06:00:00 3.2 18 Noroeste 31 Noroeste 0 -- -- 85
2018-03-24 05:00:00 3.5 14 Oeste 50 Norte 2 -- -- 88
2018-03-24 04:00:00 8.3 19 Oeste 58 Oeste 0.8 -- -- 87
2018-03-24 03:00:00 9.4 28 Oeste 54 Sudoeste 0.2 -- -- 82
2018-03-24 02:00:00 9.2 17 Oeste 33 Oeste 0 -- -- 84
2018-03-24 01:00:00 9.4 17 Oeste 34 Oeste 0 -- -- 80
2018-03-24 00:00:00 8.7 23 Oeste 44 Oeste 0 -- -- 82
2018-03-23 23:00:00 8.1 17 Oeste 33 Oeste 0 -- -- 82
2018-03-23 22:00:00 8.1 17 Oeste 32 Oeste 0 -- -- 81
2018-03-23 21:00:00 8.3 16 Oeste 41 Oeste 0 -- -- 82
2018-03-23 20:00:00 9 24 Oeste 44 Oeste 0 -- -- 80
2018-03-23 19:00:00 9.9 22 Oeste 49 Oeste 0 -- -- 74
2018-03-23 18:00:00 12.6 22 Oeste 45 Oeste 0 -- -- 58
2018-03-23 17:00:00 14.5 22 Oeste 46 Oeste 0 -- -- 47
2018-03-23 16:00:00 12.9 22 Noroeste 47 Oeste 0 -- -- 46
2018-03-23 15:00:00 13.6 19 Oeste 42 Noroeste 0 -- -- 41
2018-03-23 14:00:00 14 21 Oeste 41 Noroeste 0 -- -- 44
2018-03-23 13:00:00 13.4 24 Noroeste 41 Noroeste 0 -- -- 42
2018-03-23 12:00:00 11.2 24 Noroeste 37 Noroeste 0 -- -- 46
2018-03-23 11:00:00 9.1 20 Noroeste 41 Oeste 0 -- -- 56
2018-03-23 10:00:00 5.6 18 Oeste 32 Oeste 0 -- -- 69
2018-03-23 09:00:00 3 12 Oeste 25 Oeste 0 -- -- 71
2018-03-23 08:00:00 2.1 13 Oeste 24 Oeste 0 -- -- 73
2018-03-23 07:00:00 2 12 Oeste 23 Oeste 0 -- -- 73
2018-03-23 06:00:00 2.3 13 Oeste 26 Oeste 0 -- -- 72
2018-03-23 05:00:00 2.7 13 Oeste 28 Oeste 0 -- -- 69
2018-03-23 04:00:00 2.9 14 Oeste 22 Oeste 0 -- -- 71
2018-03-23 03:00:00 3 11 Oeste 21 Oeste 0 -- -- 65
2018-03-23 02:00:00 3.2 9 Oeste 19 Oeste 0 -- -- 60
2018-03-23 01:00:00 4.5 8 Oeste 21 Oeste 0 -- -- 52
2018-03-23 00:00:00 5.8 6 Oeste 15 Oeste 0 -- -- 47